Time;durP1;ratioP1;P1;durP2;ratioP2;P2;SDS_P1;SDS_P2;PMS_P1;PMS_P2;Temp;Humidity;BMP_temperature;BMP_pressure;BME280_temperature;BME280_humidity;BME280_pressure;Samples;Min_cycle;Max_cycle;Signal;HPM_P1;HPM_P2
2023/08/12 00:02:34;;;;;;;11.80;7.80;;;;;;;15.65;68.18;100778.91;30841198;28;97057;-76
2023/08/12 00:17:36;;;;;;;15.77;9.52;;;;;;;15.47;68.71;100782.81;30838660;28;111126;-76
2023/08/12 00:32:36;;;;;;;13.20;8.23;;;;;;;15.37;68.96;100769.69;30838947;28;96714;-76
2023/08/12 00:47:37;;;;;;;17.65;10.38;;;;;;;15.23;69.30;100749.09;30870515;28;97535;-73
2023/08/12 01:02:38;;;;;;;23.05;11.30;;;;;;;15.14;69.84;100732.25;30963855;28;97157;-75
2023/08/12 01:17:41;;;;;;;16.52;8.43;;;;;;;14.96;70.21;100726.44;30979563;28;97457;-77
2023/08/12 01:32:49;;;;;;;10.80;7.70;;;;;;;14.81;70.47;100729.97;30978271;28;97171;-73
2023/08/12 01:47:51;;;;;;;12.40;7.67;;;;;;;14.69;70.71;100731.44;30976482;28;97247;-76
2023/08/12 02:02:51;;;;;;;10.67;7.67;;;;;;;14.55;71.10;100719.66;30975071;28;97524;-72
2023/08/12 02:17:51;;;;;;;9.27;7.65;;;;;;;14.29;71.46;100696.78;30973514;28;97580;-76
2023/08/12 02:32:52;;;;;;;12.65;8.13;;;;;;;14.09;71.94;100704.50;30972805;28;104854;-76
2023/08/12 02:47:52;;;;;;;10.88;8.75;;;;;;;14.04;72.09;100705.06;30972240;28;97519;-76
2023/08/12 03:02:53;;;;;;;13.82;8.60;;;;;;;14.00;72.59;100701.06;30968411;28;103373;-71
2023/08/12 03:17:53;;;;;;;12.10;8.40;;;;;;;13.95;72.88;100706.13;30965499;28;97493;-75
2023/08/12 03:32:53;;;;;;;10.18;8.05;;;;;;;13.99;72.78;100709.28;30965164;28;96630;-74
2023/08/12 03:47:54;;;;;;;11.55;8.55;;;;;;;13.96;72.86;100707.78;30965102;28;98236;-75
2023/08/12 04:02:54;;;;;;;11.20;7.80;;;;;;;13.98;72.92;100712.97;30963331;28;106863;-75
2023/08/12 04:17:54;;;;;;;14.15;8.43;;;;;;;14.13;72.90;100699.63;30962134;28;96867;-73
2023/08/12 04:32:55;;;;;;;11.95;8.43;;;;;;;14.47;72.88;100701.78;30961143;28;96756;-75
2023/08/12 04:47:57;;;;;;;12.00;9.00;;;;;;;14.88;72.78;100688.00;30978833;28;112596;-73
2023/08/12 05:02:57;;;;;;;;;;;;;;;15.38;72.72;100695.38;30979470;28;97026;-75
2023/08/12 05:17:58;;;;;;;11.40;7.93;;;;;;;15.97;72.31;100690.81;30978892;28;96965;-76
2023/08/12 05:32:58;;;;;;;11.02;6.25;;;;;;;16.61;72.19;100671.00;30976124;28;96763;-71
2023/08/12 05:47:58;;;;;;;7.72;5.68;;;;;;;17.43;70.86;100671.16;30974168;28;109748;-71
2023/08/12 06:02:59;;;;;;;7.22;5.20;;;;;;;18.50;69.83;100655.00;30974686;28;97302;-71
2023/08/12 06:18:00;;;;;;;7.63;4.57;;;;;;;19.47;67.73;100656.88;30970771;28;97365;-71
2023/08/12 06:33:00;;;;;;;4.87;4.17;;;;;;;20.11;65.34;100656.84;30968300;28;97536;-71
2023/08/12 06:48:02;;;;;;;4.77;3.70;;;;;;;20.81;62.96;100644.06;30967706;28;97061;-72
2023/08/12 07:03:02;;;;;;;7.97;3.80;;;;;;;21.96;60.49;100634.88;30966498;28;97164;-75
2023/08/12 07:18:03;;;;;;;5.22;2.90;;;;;;;22.64;56.44;100642.66;30966867;28;97549;-72
2023/08/12 07:33:04;;;;;;;4.80;2.72;;;;;;;22.59;55.18;100632.50;30964864;28;97303;-72
2023/08/12 07:48:04;;;;;;;4.27;2.83;;;;;;;23.21;53.59;100627.47;30962646;28;97193;-70
2023/08/12 08:03:05;;;;;;;6.15;2.47;;;;;;;24.01;51.04;100617.41;30959806;28;97205;-70
2023/08/12 08:18:05;;;;;;;4.38;2.30;;;;;;;24.53;48.91;100610.75;30956321;28;96971;-70
2023/08/12 08:33:08;;;;;;;6.63;2.40;;;;;;;25.01;47.91;100594.72;30959577;28;97565;-70
2023/08/12 08:48:11;;;;;;;3.23;2.20;;;;;;;25.66;46.07;100590.13;30958996;28;96759;-71
2023/08/12 09:03:14;;;;;;;9.07;2.80;;;;;;;26.86;43.91;100584.25;30957964;28;96838;-68
2023/08/12 09:18:16;;;;;;;3.23;1.90;;;;;;;27.73;41.08;100579.94;30956534;28;96844;-69
2023/08/12 09:33:24;;;;;;;4.60;2.17;;;;;;;31.09;36.37;100576.19;30973824;28;96846;-69
2023/08/12 09:48:26;;;;;;;7.60;2.40;;;;;;;32.89;32.77;100564.50;30975551;28;97024;-69
2023/08/12 10:03:26;;;;;;;4.57;2.00;;;;;;;31.68;32.23;100549.06;30974547;28;96804;-69
2023/08/12 10:18:28;;;;;;;4.35;1.58;;;;;;;30.75;33.45;100538.72;30972015;28;97615;-70
2023/08/12 10:33:29;;;;;;;3.70;1.90;;;;;;;31.34;32.83;100526.25;30971479;28;96758;-69
2023/08/12 10:48:29;;;;;;;5.18;1.75;;;;;;;31.49;32.54;100502.28;30969616;28;97521;-70
2023/08/12 11:03:36;;;;;;;2.45;1.50;;;;;;;31.31;31.99;100488.28;30969385;28;96796;-70
2023/08/12 11:18:36;;;;;;;;;;;;;;;31.53;31.89;100481.28;30966635;28;97107;-69
2023/08/12 11:33:36;;;;;;;1.90;1.42;;;;;;;31.83;31.42;100468.88;30966916;28;97545;-70
2023/08/12 11:48:36;;;;;;;1.88;1.60;;;;;;;32.11;31.60;100457.00;30963176;28;97045;-69
2023/08/12 12:03:37;;;;;;;4.00;1.55;;;;;;;32.68;30.56;100435.31;30963049;28;107863;-70
2023/08/12 12:18:38;;;;;;;6.25;1.70;;;;;;;32.10;30.98;100430.59;30961277;28;96965;-69
2023/08/12 12:33:38;;;;;;;1.77;1.37;;;;;;;31.95;31.27;100416.03;30960391;28;96805;-70
2023/08/12 12:48:39;;;;;;;4.30;1.50;;;;;;;32.33;30.09;100414.94;30957828;28;110636;-70
2023/08/12 13:03:39;;;;;;;4.78;1.75;;;;;;;32.16;31.22;100396.31;30970988;28;97484;-69
2023/08/12 13:18:40;;;;;;;9.38;1.70;;;;;;;32.13;31.23;100389.44;30978605;28;98199;-69
2023/08/12 13:33:40;;;;;;;4.88;1.70;;;;;;;32.28;31.38;100365.44;30977572;28;98578;-70
2023/08/12 13:48:41;;;;;;;5.03;1.80;;;;;;;31.75;32.23;100345.66;30975757;28;96869;-69
2023/08/12 14:03:42;;;;;;;2.27;1.40;;;;;;;32.01;31.75;100320.28;30974990;28;97320;-70
2023/08/12 14:18:42;;;;;;;3.83;1.98;;;;;;;31.95;32.13;100305.84;30970514;28;97473;-69
2023/08/12 14:33:43;;;;;;;3.10;1.92;;;;;;;31.43;32.75;100289.63;30971252;28;111575;-69
2023/08/12 14:48:43;;;;;;;3.92;1.90;;;;;;;31.12;32.89;100253.69;30970059;28;97352;-70
2023/08/12 15:03:43;;;;;;;4.53;1.70;;;;;;;30.63;33.93;100250.50;30967072;28;110818;-70
2023/08/12 15:18:44;;;;;;;3.70;1.75;;;;;;;30.41;34.52;100234.66;30965093;28;109677;-70
2023/08/12 15:33:44;;;;;;;3.42;2.10;;;;;;;30.20;34.80;100232.28;30965671;28;109246;-70
2023/08/12 15:48:44;;;;;;;3.15;1.80;;;;;;;29.96;35.42;100211.22;30965452;28;96801;-70
2023/08/12 16:03:45;;;;;;;6.00;1.77;;;;;;;29.92;36.25;100207.44;30963457;28;108223;-70
2023/08/12 16:18:45;;;;;;;3.60;2.05;;;;;;;29.79;36.02;100208.22;30961427;28;97586;-70
2023/08/12 16:33:46;;;;;;;4.30;2.20;;;;;;;29.50;36.95;100198.22;30958663;28;113252;-70
2023/08/12 16:48:46;;;;;;;3.83;2.08;;;;;;;28.96;38.14;100198.34;30958224;28;96740;-71
2023/08/12 17:03:46;;;;;;;7.20;4.38;;;;;;;28.60;39.58;100192.47;30959050;28;96727;-71
2023/08/12 17:18:47;;;;;;;53.97;38.65;;;;;;;28.19;40.59;100188.22;30956316;28;97094;-70
2023/08/12 17:33:47;;;;;;;13.73;7.65;;;;;;;27.74;42.18;100196.50;30956232;28;112337;-69
2023/08/12 17:48:47;;;;;;;5.93;4.00;;;;;;;27.24;43.39;100191.03;30963410;28;96727;-69
2023/08/12 18:03:48;;;;;;;8.30;4.68;;;;;;;26.73;44.90;100181.16;30972744;28;96893;-69
2023/08/12 18:18:48;;;;;;;4.53;2.92;;;;;;;26.26;45.59;100202.25;30970649;28;102945;-69
2023/08/12 18:33:48;;;;;;;7.72;3.75;;;;;;;25.82;46.62;100221.88;30970582;28;97178;-69
2023/08/12 18:48:49;;;;;;;9.02;3.50;;;;;;;25.54;46.98;100234.94;30969695;28;97468;-70
2023/08/12 19:03:49;;;;;;;5.53;4.10;;;;;;;25.37;47.82;100221.53;30969777;28;98428;-69
2023/08/12 19:18:49;;;;;;;7.22;3.95;;;;;;;25.08;48.22;100197.44;30967978;28;103480;-70
2023/08/12 19:33:50;;;;;;;9.23;5.75;;;;;;;24.76;48.62;100206.53;30965867;28;113924;-70
2023/08/12 19:48:50;;;;;;;8.40;4.18;;;;;;;24.53;49.40;100207.72;30963802;28;97175;-70
2023/08/12 20:03:51;;;;;;;5.43;3.13;;;;;;;24.27;50.05;100217.63;30961765;28;107177;-69
2023/08/12 20:18:51;;;;;;;10.40;3.40;;;;;;;23.98;50.66;100224.22;30958707;28;97077;-69
2023/08/12 20:33:52;;;;;;;5.68;3.35;;;;;;;23.45;51.65;100220.41;30959274;28;108865;-69
2023/08/12 20:48:52;;;;;;;11.25;3.92;;;;;;;22.99;53.14;100213.31;30957445;28;97483;-69
2023/08/12 21:03:52;;;;;;;8.93;3.53;;;;;;;22.56;54.30;100206.75;30958020;28;102999;-70
2023/08/12 21:18:52;;;;;;;;;;;;;;;22.24;55.36;100198.38;30961324;28;97476;-69
2023/08/12 21:33:53;;;;;;;6.20;2.70;;;;;;;22.44;54.76;100201.44;30979148;28;98086;-70
2023/08/12 21:48:53;;;;;;;;;;;;;;;22.74;52.96;100200.22;30976706;28;113198;-69
2023/08/12 22:03:53;;;;;;;4.87;2.87;;;;;;;22.63;52.32;100185.69;30977031;28;97415;-68
2023/08/12 22:18:53;;;;;;;;;;;;;;;22.44;52.50;100197.91;30974257;28;99619;-70
2023/08/12 22:33:54;;;;;;;7.50;2.90;;;;;;;22.12;53.05;100210.13;30972922;28;96895;-69
2023/08/12 22:48:54;;;;;;;6.40;3.58;;;;;;;21.91;53.73;100198.13;30971842;28;110869;-70
2023/08/12 23:03:55;;;;;;;4.93;2.50;;;;;;;21.77;54.23;100194.94;30969877;28;109386;-70
2023/08/12 23:18:55;;;;;;;4.40;2.63;;;;;;;21.73;54.46;100193.75;30968199;28;97379;-69
2023/08/12 23:33:55;;;;;;;5.63;2.30;;;;;;;21.57;54.72;100199.97;30966349;28;97427;-69
2023/08/12 23:48:56;;;;;;;4.60;2.70;;;;;;;21.46;54.97;100212.50;30964721;28;97530;-69
